createdAt,value
2023-03-01T00:02:08.068Z,-1.10
2023-03-01T00:04:36.741Z,-1.10
2023-03-01T00:07:04.850Z,-1.10
2023-03-01T00:09:33.389Z,-1.10
2023-03-01T00:12:01.598Z,-1.20
2023-03-01T00:14:29.633Z,-1.20
2023-03-01T00:16:59.327Z,-1.30
2023-03-01T00:19:27.421Z,-1.40
2023-03-01T00:21:55.530Z,-1.50
2023-03-01T00:24:23.570Z,-1.60
2023-03-01T00:26:56.869Z,-1.70
2023-03-01T00:29:25.728Z,-1.70
2023-03-01T00:31:53.877Z,-1.90
2023-03-01T00:34:23.345Z,-1.80
2023-03-01T00:36:51.365Z,-1.80
2023-03-01T00:39:19.423Z,-1.70
2023-03-01T00:41:47.444Z,-1.70
2023-03-01T00:44:15.766Z,-1.70
2023-03-01T00:46:44.026Z,-1.70
2023-03-01T00:49:12.097Z,-1.60
2023-03-01T00:51:42.525Z,-1.70
2023-03-01T00:54:11.375Z,-1.80
2023-03-01T00:56:39.806Z,-1.90
2023-03-01T00:59:07.897Z,-2.00
2023-03-01T01:01:36.130Z,-1.90
2023-03-01T01:04:07.486Z,-1.80
2023-03-01T01:06:38.931Z,-1.80
2023-03-01T01:09:09.786Z,-1.90
2023-03-01T01:11:38.321Z,-2.10
2023-03-01T01:14:07.072Z,-2.20
2023-03-01T01:16:35.393Z,-2.30
2023-03-01T01:19:03.781Z,-2.30
2023-03-01T01:21:32.944Z,-2.30
2023-03-01T01:24:01.659Z,-2.30
2023-03-01T01:26:34.130Z,-2.30
2023-03-01T01:29:05.530Z,-2.20
2023-03-01T01:31:35.563Z,-2.10
2023-03-01T01:34:08.057Z,-2.10
2023-03-01T01:36:36.998Z,-2.20
2023-03-01T01:39:06.180Z,-2.20
2023-03-01T01:41:35.910Z,-2.30
2023-03-01T01:44:19.135Z,-2.40
2023-03-01T01:46:52.351Z,-2.60
2023-03-01T01:49:33.190Z,-2.70
2023-03-01T01:52:13.826Z,-2.90
2023-03-01T01:54:48.833Z,-2.90
2023-03-01T01:57:25.684Z,-2.90
2023-03-01T02:00:00.424Z,-3.10
2023-03-01T02:02:29.310Z,-3.10
2023-03-01T02:05:12.480Z,-3.00
2023-03-01T02:07:42.011Z,-2.90
2023-03-01T02:10:12.000Z,-2.70
2023-03-01T02:12:42.048Z,-2.60
2023-03-01T02:15:11.081Z,-2.40
2023-03-01T02:17:40.518Z,-2.20
2023-03-01T02:20:21.441Z,-2.10
2023-03-01T02:22:50.881Z,-2.10
2023-03-01T02:25:46.942Z,-2.10
2023-03-01T02:28:31.543Z,-2.20
2023-03-01T02:31:17.756Z,-2.20
2023-03-01T02:33:49.181Z,-2.20
2023-03-01T02:36:28.716Z,-2.30
2023-03-01T02:39:03.507Z,-2.40
2023-03-01T02:41:37.741Z,-2.50
2023-03-01T02:44:08.530Z,-2.30
2023-03-01T02:46:45.146Z,-2.40
2023-03-01T02:49:27.141Z,-2.50
2023-03-01T02:52:23.693Z,-2.80
2023-03-01T02:55:00.434Z,-3.00
2023-03-01T02:57:32.100Z,-3.10
2023-03-01T03:00:09.177Z,-2.80
2023-03-01T03:02:38.202Z,-2.70
2023-03-01T03:05:11.712Z,-2.60
2023-03-01T03:07:42.794Z,-2.60
2023-03-01T03:10:15.513Z,-2.60
2023-03-01T03:12:44.200Z,-2.60
2023-03-01T03:15:13.919Z,-2.60
2023-03-01T03:17:46.229Z,-2.60
2023-03-01T03:20:19.964Z,-2.60
2023-03-01T03:22:49.845Z,-2.60
2023-03-01T03:25:19.832Z,-2.60
2023-03-01T03:27:50.694Z,-2.50
2023-03-01T03:30:22.617Z,-2.50
2023-03-01T03:32:54.017Z,-2.50
2023-03-01T03:35:26.530Z,-2.50
2023-03-01T03:38:03.826Z,-2.40
2023-03-01T03:40:35.190Z,-2.50
2023-03-01T03:43:03.842Z,-2.40
2023-03-01T03:45:34.398Z,-2.40
2023-03-01T03:48:03.819Z,-2.40
2023-03-01T03:50:32.064Z,-2.50
2023-03-01T03:53:02.422Z,-2.60
2023-03-01T03:55:31.666Z,-2.80
2023-03-01T03:58:03.396Z,-3.00
2023-03-01T04:00:33.025Z,-3.00
2023-03-01T04:03:01.734Z,-3.00
2023-03-01T04:05:30.525Z,-3.00
2023-03-01T04:08:08.205Z,-3.10
2023-03-01T04:10:39.508Z,-3.10
2023-03-01T04:13:09.625Z,-3.10
2023-03-01T04:15:39.629Z,-3.20
2023-03-01T04:18:09.236Z,-3.00
2023-03-01T04:20:37.908Z,-2.90
2023-03-01T04:23:16.906Z,-3.00
2023-03-01T04:25:54.596Z,-3.00
2023-03-01T04:28:25.438Z,-3.00
2023-03-01T04:30:57.303Z,-3.10
2023-03-01T04:33:27.398Z,-3.20
2023-03-01T04:35:55.600Z,-3.20
2023-03-01T04:38:23.747Z,-3.20
2023-03-01T04:40:51.863Z,-3.20
2023-03-01T04:43:19.903Z,-3.00
2023-03-01T04:45:48.054Z,-2.90
2023-03-01T04:48:17.511Z,-2.80
2023-03-01T04:50:45.658Z,-2.80
2023-03-01T04:53:13.721Z,-2.80
2023-03-01T04:55:41.785Z,-2.80
2023-03-01T04:58:10.122Z,-2.90
2023-03-01T05:00:38.254Z,-2.90
2023-03-01T05:03:06.503Z,-2.90
2023-03-01T05:05:38.748Z,-2.80
2023-03-01T05:08:18.301Z,-2.80
2023-03-01T05:10:50.213Z,-2.90
2023-03-01T05:13:22.016Z,-2.90
2023-03-01T05:15:51.247Z,-2.80
2023-03-01T05:18:19.706Z,-2.80
2023-03-01T05:20:49.380Z,-2.80
2023-03-01T05:23:17.512Z,-2.80
2023-03-01T05:25:45.685Z,-2.60
2023-03-01T05:28:14.726Z,-2.50
2023-03-01T05:30:43.367Z,-2.40
2023-03-01T05:33:14.317Z,-2.40
2023-03-01T05:35:43.493Z,-2.30
2023-03-01T05:38:15.152Z,-2.30
2023-03-01T05:40:45.555Z,-2.40
2023-03-01T05:43:16.281Z,-2.40
2023-03-01T05:45:45.405Z,-2.40
2023-03-01T05:48:14.999Z,-2.20
2023-03-01T05:50:46.663Z,-2.00
2023-03-01T05:53:18.658Z,-2.00
2023-03-01T05:55:48.428Z,-1.90
2023-03-01T05:58:19.977Z,-1.90
2023-03-01T06:00:51.157Z,-2.00
2023-03-01T06:03:20.364Z,-2.00
2023-03-01T06:05:48.739Z,-2.00
2023-03-01T06:08:18.314Z,-2.10
2023-03-01T06:10:46.381Z,-2.10
2023-03-01T06:13:14.539Z,-2.20
2023-03-01T06:15:42.936Z,-2.30
2023-03-01T06:18:11.391Z,-2.30
2023-03-01T06:20:39.442Z,-2.40
2023-03-01T06:23:09.116Z,-2.30
2023-03-01T06:25:39.859Z,-2.20
2023-03-01T06:28:07.875Z,-2.10
2023-03-01T06:30:36.160Z,-2.10
2023-03-01T06:33:05.084Z,-2.00
2023-03-01T06:35:33.379Z,-2.00
2023-03-01T06:38:05.289Z,-1.90
2023-03-01T06:40:36.323Z,-1.90
2023-03-01T06:43:07.542Z,-1.90
2023-03-01T06:45:36.112Z,-1.90
2023-03-01T06:48:06.362Z,-1.80
2023-03-01T06:50:35.518Z,-1.70
2023-03-01T06:53:04.773Z,-1.60
2023-03-01T06:55:33.684Z,-1.60
2023-03-01T06:58:04.202Z,-1.50
2023-03-01T07:00:34.241Z,-1.40
2023-03-01T07:03:04.283Z,-1.20
2023-03-01T07:05:33.006Z,-1.20
2023-03-01T07:08:01.081Z,-1.00
2023-03-01T07:10:29.267Z,-1.00
2023-03-01T07:12:58.478Z,-0.90
2023-03-01T07:15:28.047Z,-0.80
2023-03-01T07:17:58.733Z,-0.80
2023-03-01T07:20:27.249Z,-0.70
2023-03-01T07:22:56.218Z,-0.70
2023-03-01T07:25:24.388Z,-0.60
2023-03-01T07:27:53.448Z,-0.50
2023-03-01T07:30:22.844Z,-0.50
2023-03-01T07:32:51.057Z,-0.40
2023-03-01T07:35:20.538Z,-0.40
2023-03-01T07:37:48.619Z,-0.40
2023-03-01T07:40:16.960Z,-0.30
2023-03-01T07:42:45.064Z,-0.20
2023-03-01T07:45:14.408Z,-0.20
2023-03-01T07:47:42.517Z,-0.10
2023-03-01T07:50:12.497Z,-0.10
2023-03-01T07:52:41.904Z,0.00
2023-03-01T07:55:10.843Z,0.00
2023-03-01T07:57:40.236Z,0.00
2023-03-01T08:00:12.813Z,0.10
2023-03-01T08:02:42.811Z,0.10
2023-03-01T08:05:11.914Z,0.20
2023-03-01T08:07:41.339Z,0.20
2023-03-01T08:10:11.148Z,0.20
2023-03-01T08:12:39.163Z,0.30
2023-03-01T08:15:09.203Z,0.40
2023-03-01T08:17:37.230Z,0.40
2023-03-01T08:20:07.442Z,0.50
2023-03-01T08:22:35.660Z,0.70
2023-03-01T08:25:05.944Z,0.90
2023-03-01T08:27:33.948Z,1.20
2023-03-01T08:30:02.036Z,1.60
2023-03-01T08:32:30.235Z,1.90
2023-03-01T08:34:58.465Z,2.10
2023-03-01T08:37:27.445Z,2.30
2023-03-01T08:39:55.866Z,2.50
2023-03-01T08:42:25.326Z,3.00
2023-03-01T08:44:53.369Z,3.20
2023-03-01T08:47:21.461Z,3.50
2023-03-01T08:49:51.829Z,3.70
2023-03-01T08:52:19.852Z,4.10
2023-03-01T08:54:49.533Z,4.70
2023-03-01T08:57:17.733Z,5.10
2023-03-01T08:59:47.248Z,5.30
2023-03-01T09:02:18.528Z,5.80
2023-03-01T09:04:46.880Z,6.60
2023-03-01T09:07:14.920Z,6.60
2023-03-01T09:09:43.078Z,6.40
2023-03-01T09:12:11.292Z,6.50
2023-03-01T09:14:39.831Z,6.60
2023-03-01T09:17:09.301Z,6.20
2023-03-01T09:19:37.932Z,6.30
2023-03-01T09:22:06.569Z,6.40
2023-03-01T09:24:34.840Z,6.60
2023-03-01T09:27:03.862Z,7.00
2023-03-01T09:29:32.093Z,7.10
2023-03-01T09:32:00.640Z,7.30
2023-03-01T09:34:30.326Z,8.00
2023-03-01T09:37:03.344Z,8.70
2023-03-01T09:39:31.352Z,8.50
2023-03-01T09:42:04.038Z,8.50
2023-03-01T09:44:40.852Z,8.90
2023-03-01T09:47:18.314Z,9.60
2023-03-01T09:50:04.236Z,10.10
2023-03-01T09:52:42.375Z,9.40
2023-03-01T09:55:17.055Z,9.00
2023-03-01T09:57:53.706Z,8.60
2023-03-01T10:00:39.036Z,8.30
2023-03-01T10:03:19.008Z,8.40
2023-03-01T10:05:59.961Z,8.40
2023-03-01T10:08:42.713Z,8.40
2023-03-01T10:11:25.127Z,8.80
2023-03-01T10:14:03.921Z,8.90
2023-03-01T10:16:45.099Z,8.80
2023-03-01T10:19:19.584Z,8.90
2023-03-01T10:21:50.738Z,9.00
2023-03-01T10:24:22.651Z,8.80
2023-03-01T10:26:57.610Z,9.00
2023-03-01T10:29:33.998Z,9.10
2023-03-01T10:32:02.764Z,9.30
2023-03-01T10:34:34.315Z,9.10
2023-03-01T10:37:14.122Z,9.00
2023-03-01T10:39:59.928Z,9.00
2023-03-01T10:42:32.655Z,9.20
2023-03-01T10:45:18.264Z,9.20
2023-03-01T10:47:46.369Z,9.20
2023-03-01T10:50:24.699Z,10.10
2023-03-01T10:53:02.962Z,10.00
2023-03-01T10:55:37.438Z,9.20
2023-03-01T10:58:20.134Z,9.40
2023-03-01T11:00:53.731Z,9.40
2023-03-01T11:03:27.707Z,9.80
2023-03-01T11:06:07.438Z,9.90
2023-03-01T11:08:43.715Z,10.10
2023-03-01T11:11:33.403Z,10.40
2023-03-01T11:14:23.506Z,10.30
2023-03-01T11:17:03.750Z,10.50
2023-03-01T11:19:32.836Z,10.40
2023-03-01T11:22:13.824Z,10.10
2023-03-01T11:24:57.240Z,10.00
2023-03-01T11:27:38.186Z,10.20
2023-03-01T11:30:20.396Z,10.40
2023-03-01T11:32:59.284Z,10.00
2023-03-01T11:35:31.583Z,10.60
2023-03-01T11:38:17.638Z,11.00
2023-03-01T11:40:56.059Z,10.60
2023-03-01T11:43:36.206Z,11.00
2023-03-01T11:46:53.666Z,10.90
2023-03-01T11:50:04.506Z,10.40
2023-03-01T11:52:50.903Z,10.60
2023-03-01T11:55:38.777Z,10.80
2023-03-01T11:58:28.611Z,10.80
2023-03-01T12:01:19.494Z,10.70
2023-03-01T12:04:24.542Z,10.80
2023-03-01T12:07:02.488Z,11.00
2023-03-01T12:09:49.875Z,10.90
2023-03-01T12:12:39.816Z,10.60
2023-03-01T12:15:46.100Z,10.60
2023-03-01T12:19:01.537Z,10.30
2023-03-01T12:21:47.716Z,9.90
2023-03-01T12:24:49.317Z,10.20
2023-03-01T12:27:39.300Z,10.40
2023-03-01T12:30:33.277Z,10.30
2023-03-01T12:33:20.781Z,10.00
2023-03-01T12:36:43.416Z,10.00
2023-03-01T12:39:35.788Z,9.60
2023-03-01T12:42:16.854Z,9.80
2023-03-01T12:45:28.434Z,10.10
2023-03-01T12:48:26.220Z,10.20
2023-03-01T12:51:01.324Z,9.80
2023-03-01T12:53:34.144Z,9.80
2023-03-01T12:56:10.032Z,10.00
2023-03-01T12:58:53.373Z,10.10
2023-03-01T13:01:39.343Z,10.10
2023-03-01T13:04:39.405Z,10.20
2023-03-01T13:07:26.782Z,10.00
2023-03-01T13:10:10.035Z,9.70
2023-03-01T13:12:47.794Z,9.80
2023-03-01T13:15:37.395Z,10.00
2023-03-01T13:18:32.887Z,10.00
2023-03-01T13:21:04.020Z,9.70
2023-03-01T13:23:36.999Z,9.60
2023-03-01T13:26:13.762Z,9.80
2023-03-01T13:28:50.580Z,9.90
2023-03-01T13:32:02.746Z,9.90
2023-03-01T13:34:57.495Z,9.90
2023-03-01T13:37:36.313Z,10.00
2023-03-01T13:40:48.947Z,9.90
2023-03-01T13:43:33.009Z,10.00
2023-03-01T13:46:04.034Z,9.60
2023-03-01T13:48:34.828Z,9.60
2023-03-01T13:51:09.633Z,9.70
2023-03-01T13:53:44.835Z,9.90
2023-03-01T13:56:18.826Z,10.00
2023-03-01T13:58:52.557Z,9.80
2023-03-01T14:01:30.772Z,10.00
2023-03-01T14:04:01.939Z,9.90
2023-03-01T14:06:37.524Z,9.80
2023-03-01T14:09:22.502Z,9.60
2023-03-01T14:12:19.784Z,9.50
2023-03-01T14:15:03.338Z,9.60
2023-03-01T14:17:52.213Z,9.80
2023-03-01T14:20:24.280Z,9.80
2023-03-01T14:22:57.687Z,9.70
2023-03-01T14:25:30.970Z,9.60
2023-03-01T14:28:13.926Z,9.70
2023-03-01T14:30:46.358Z,9.60
2023-03-01T14:33:28.060Z,9.50
2023-03-01T14:36:03.000Z,9.50
2023-03-01T14:38:36.714Z,9.70
2023-03-01T14:41:10.449Z,9.60
2023-03-01T14:43:41.129Z,9.70
2023-03-01T14:46:22.590Z,9.50
2023-03-01T14:48:54.034Z,9.50
2023-03-01T14:51:22.807Z,9.30
2023-03-01T14:53:53.606Z,9.40
2023-03-01T14:56:22.041Z,9.20
2023-03-01T14:58:55.064Z,9.40
2023-03-01T15:01:24.018Z,9.40
2023-03-01T15:03:53.231Z,9.40
2023-03-01T15:06:24.966Z,9.50
2023-03-01T15:08:58.220Z,9.50
2023-03-01T15:11:30.751Z,9.30
2023-03-01T15:14:00.078Z,9.10
2023-03-01T15:16:32.738Z,8.90
2023-03-01T15:19:04.428Z,8.90
2023-03-01T15:21:37.241Z,8.80
2023-03-01T15:24:21.347Z,8.60
2023-03-01T15:26:58.340Z,8.70
2023-03-01T15:29:30.901Z,8.70
2023-03-01T15:32:04.871Z,8.70
2023-03-01T15:34:35.354Z,8.70
2023-03-01T15:37:06.517Z,8.50
2023-03-01T15:39:45.068Z,8.70
2023-03-01T15:42:17.594Z,8.70
2023-03-01T15:44:46.140Z,8.60
2023-03-01T15:47:32.681Z,8.50
2023-03-01T15:50:02.919Z,8.50
2023-03-01T15:52:40.222Z,8.50
2023-03-01T15:55:20.319Z,8.40
2023-03-01T15:57:49.853Z,8.40
2023-03-01T16:00:20.110Z,8.50
2023-03-01T16:02:48.339Z,8.50
2023-03-01T16:05:24.093Z,8.50
2023-03-01T16:07:52.418Z,8.30
2023-03-01T16:10:22.690Z,8.30
2023-03-01T16:12:52.576Z,8.20
2023-03-01T16:15:24.956Z,8.20
2023-03-01T16:17:54.066Z,8.20
2023-03-01T16:20:28.352Z,8.20
2023-03-01T16:22:58.857Z,8.10
2023-03-01T16:25:28.359Z,8.10
2023-03-01T16:27:57.019Z,8.00
2023-03-01T16:30:25.403Z,7.90
2023-03-01T16:32:53.707Z,7.90
2023-03-01T16:35:24.573Z,8.00
2023-03-01T16:37:54.851Z,7.80
2023-03-01T16:40:26.924Z,7.70
2023-03-01T16:43:02.020Z,7.50
2023-03-01T16:45:35.027Z,7.40
2023-03-01T16:48:03.255Z,7.30
2023-03-01T16:50:31.312Z,7.20
2023-03-01T16:52:59.557Z,7.10
2023-03-01T16:55:27.669Z,6.90
2023-03-01T16:57:57.228Z,6.70
2023-03-01T17:00:25.525Z,6.40
2023-03-01T17:02:56.306Z,6.10
2023-03-01T17:05:25.926Z,5.80
2023-03-01T17:07:56.558Z,5.70
2023-03-01T17:10:24.740Z,5.60
2023-03-01T17:12:53.479Z,5.50
2023-03-01T17:15:22.871Z,5.40
2023-03-01T17:17:51.997Z,5.20
2023-03-01T17:20:20.548Z,5.10
2023-03-01T17:22:48.838Z,5.10
2023-03-01T17:25:17.130Z,5.10
2023-03-01T17:27:45.285Z,5.00
2023-03-01T17:30:16.574Z,4.90
2023-03-01T17:32:46.170Z,4.80
2023-03-01T17:35:14.547Z,4.80
2023-03-01T17:37:46.361Z,4.70
2023-03-01T17:40:15.280Z,4.50
2023-03-01T17:42:43.474Z,4.30
2023-03-01T17:45:12.461Z,4.20
2023-03-01T17:47:40.534Z,4.00
2023-03-01T17:50:12.363Z,3.90
2023-03-01T17:52:41.292Z,3.70
2023-03-01T17:55:11.493Z,3.60
2023-03-01T17:57:40.995Z,3.50
2023-03-01T18:00:15.414Z,3.30
2023-03-01T18:02:44.123Z,3.20
2023-03-01T18:05:13.914Z,3.00
2023-03-01T18:07:41.967Z,2.90
2023-03-01T18:10:12.069Z,2.80
2023-03-01T18:12:41.499Z,2.70
2023-03-01T18:15:10.801Z,2.40
2023-03-01T18:17:39.605Z,1.90
2023-03-01T18:20:09.633Z,1.60
2023-03-01T18:22:39.277Z,1.70
2023-03-01T18:25:08.603Z,1.80
2023-03-01T18:27:37.033Z,1.80
2023-03-01T18:30:07.382Z,1.80
2023-03-01T18:32:35.690Z,1.70
2023-03-01T18:35:03.754Z,1.40
2023-03-01T18:37:32.126Z,1.10
2023-03-01T18:40:02.088Z,1.00
2023-03-01T18:42:30.141Z,0.60
2023-03-01T18:44:58.185Z,0.30
2023-03-01T18:47:26.413Z,0.10
2023-03-01T18:49:54.435Z,0.00
2023-03-01T18:52:22.519Z,0.00
2023-03-01T18:54:50.610Z,-0.10
2023-03-01T18:57:20.065Z,-0.20
2023-03-01T18:59:48.080Z,0.00
2023-03-01T19:02:16.417Z,-0.10
2023-03-01T19:04:44.889Z,0.00
2023-03-01T19:07:13.500Z,0.00
2023-03-01T19:09:42.017Z,-0.10
2023-03-01T19:12:10.130Z,-0.10
2023-03-01T19:14:39.520Z,-0.10
2023-03-01T19:17:07.581Z,0.00
2023-03-01T19:19:36.404Z,-0.10
2023-03-01T19:22:06.320Z,-0.30
2023-03-01T19:24:34.708Z,-0.40
2023-03-01T19:27:02.776Z,-0.50
2023-03-01T19:29:30.849Z,-0.50
2023-03-01T19:32:00.439Z,-0.50
2023-03-01T19:34:28.533Z,-0.60
2023-03-01T19:36:56.636Z,-0.60
2023-03-01T19:39:24.747Z,-0.70
2023-03-01T19:41:52.898Z,-0.80
2023-03-01T19:44:24.790Z,-0.90
2023-03-01T19:46:54.035Z,-0.80
2023-03-01T19:49:23.604Z,-0.90
2023-03-01T19:51:52.860Z,-0.80
2023-03-01T19:54:21.751Z,-0.90
2023-03-01T19:56:51.566Z,-0.90
2023-03-01T19:59:24.238Z,-1.00
2023-03-01T20:01:53.042Z,-1.10
2023-03-01T20:04:21.562Z,-1.10
2023-03-01T20:06:51.245Z,-1.10
2023-03-01T20:09:22.278Z,-1.10
2023-03-01T20:11:51.734Z,-1.20
2023-03-01T20:14:23.607Z,-1.20
2023-03-01T20:16:52.406Z,-1.30
2023-03-01T20:19:20.863Z,-1.30
2023-03-01T20:21:50.521Z,-1.20
2023-03-01T20:24:18.564Z,-1.20
2023-03-01T20:26:46.713Z,-1.10
2023-03-01T20:29:14.853Z,-1.10
2023-03-01T20:31:43.009Z,-1.00
2023-03-01T20:34:11.245Z,-0.90
2023-03-01T20:36:40.951Z,-1.10
2023-03-01T20:39:11.725Z,-1.20
2023-03-01T20:41:40.068Z,-1.30
2023-03-01T20:44:09.415Z,-1.40
2023-03-01T20:46:38.534Z,-1.40
2023-03-01T20:49:07.310Z,-1.30
2023-03-01T20:51:35.427Z,-1.10
2023-03-01T20:54:03.734Z,-1.10
2023-03-01T20:56:33.479Z,-1.00
2023-03-01T20:59:01.706Z,-0.90
2023-03-01T21:01:30.990Z,-0.80
2023-03-01T21:03:59.045Z,-0.80
2023-03-01T21:06:27.222Z,-0.60
2023-03-01T21:08:56.806Z,-0.40
2023-03-01T21:11:25.920Z,-0.30
2023-03-01T21:13:56.806Z,-0.50
2023-03-01T21:16:26.499Z,-0.70
2023-03-01T21:18:54.873Z,-0.80
2023-03-01T21:21:24.980Z,-1.10
2023-03-01T21:23:53.062Z,-1.30
2023-03-01T21:26:23.735Z,-1.40
2023-03-01T21:28:57.407Z,-1.60
2023-03-01T21:31:28.552Z,-1.90
2023-03-01T21:33:59.879Z,-1.90
2023-03-01T21:36:33.719Z,-1.90
2023-03-01T21:39:02.826Z,-1.90
2023-03-01T21:41:34.106Z,-2.00
2023-03-01T21:44:07.860Z,-2.10
2023-03-01T21:46:40.385Z,-2.30
2023-03-01T21:49:10.184Z,-2.40
2023-03-01T21:51:38.827Z,-2.40
2023-03-01T21:54:07.904Z,-2.40
2023-03-01T21:56:39.272Z,-2.40
2023-03-01T21:59:13.716Z,-2.40
2023-03-01T22:01:42.241Z,-2.50
2023-03-01T22:04:13.271Z,-2.50
2023-03-01T22:06:43.913Z,-2.60
2023-03-01T22:09:16.585Z,-2.70
2023-03-01T22:11:48.920Z,-2.80
2023-03-01T22:14:20.284Z,-2.80
2023-03-01T22:16:51.689Z,-2.80
2023-03-01T22:19:20.690Z,-2.90
2023-03-01T22:21:52.007Z,-2.80
2023-03-01T22:24:24.029Z,-2.80
2023-03-01T22:26:54.551Z,-2.80
2023-03-01T22:29:29.029Z,-2.80
2023-03-01T22:31:58.840Z,-2.90
2023-03-01T22:34:27.817Z,-2.80
2023-03-01T22:36:56.589Z,-2.80
2023-03-01T22:39:24.713Z,-2.80
2023-03-01T22:41:55.615Z,-2.70
2023-03-01T22:44:25.991Z,-2.70
2023-03-01T22:46:54.672Z,-2.60
2023-03-01T22:49:23.487Z,-2.50
2023-03-01T22:51:52.998Z,-2.40
2023-03-01T22:54:21.786Z,-2.20
2023-03-01T22:56:51.062Z,-2.10
2023-03-01T22:59:23.206Z,-1.90
2023-03-01T23:01:54.917Z,-1.90
2023-03-01T23:04:24.907Z,-1.80
2023-03-01T23:06:54.318Z,-1.70
2023-03-01T23:09:26.937Z,-1.40
2023-03-01T23:11:56.685Z,-1.00
2023-03-01T23:14:26.033Z,-0.80
2023-03-01T23:16:55.987Z,-0.60
2023-03-01T23:19:24.881Z,-0.30
2023-03-01T23:21:54.450Z,0.00
2023-03-01T23:24:25.855Z,0.20
2023-03-01T23:26:54.304Z,0.20
2023-03-01T23:29:23.423Z,0.10
2023-03-01T23:31:51.646Z,0.10
2023-03-01T23:34:21.281Z,0.00
2023-03-01T23:36:49.659Z,-0.10
2023-03-01T23:39:17.879Z,-0.10
2023-03-01T23:41:46.475Z,-0.20
2023-03-01T23:44:18.614Z,-0.30
2023-03-01T23:46:48.796Z,-0.10
2023-03-01T23:49:23.275Z,0.00
2023-03-01T23:51:53.253Z,0.20
2023-03-01T23:54:25.396Z,0.10
2023-03-01T23:56:53.840Z,-0.10
2023-03-01T23:59:24.368Z,0.00
